sensor_id;sensor_type;location;lat;lon;timestamp;pressure;altitude;pressure_sealevel;temperature;humidity
62881;BME280;48969;49.934;8.596;2022-07-26T00:02:02;100351.09;;;24.85;54.72
62881;BME280;48969;49.934;8.596;2022-07-26T00:04:28;100345.41;;;24.80;54.03
62881;BME280;48969;49.934;8.596;2022-07-26T00:06:54;100347.63;;;24.76;54.76
62881;BME280;48969;49.934;8.596;2022-07-26T00:09:19;100344.47;;;24.73;55.50
62881;BME280;48969;49.934;8.596;2022-07-26T00:11:45;100340.63;;;24.67;55.31
62881;BME280;48969;49.934;8.596;2022-07-26T00:14:11;100344.38;;;24.66;55.34
62881;BME280;48969;49.934;8.596;2022-07-26T00:16:37;100333.34;;;24.68;55.08
62881;BME280;48969;49.934;8.596;2022-07-26T00:19:04;100341.47;;;24.68;55.34
62881;BME280;48969;49.934;8.596;2022-07-26T00:21:50;100340.47;;;24.69;55.64
62881;BME280;48969;49.934;8.596;2022-07-26T04:43:43;100464.63;;;23.18;59.71
62881;BME280;48969;49.934;8.596;2022-07-26T04:46:08;100467.34;;;23.18;59.54
62881;BME280;48969;49.934;8.596;2022-07-26T04:48:37;100465.00;;;23.15;59.56
62881;BME280;48969;49.934;8.596;2022-07-26T04:51:25;100467.69;;;23.15;59.68
62881;BME280;48969;49.934;8.596;2022-07-26T04:53:57;100461.31;;;23.08;58.39
62881;BME280;48969;49.934;8.596;2022-07-26T04:56:26;100473.47;;;23.04;58.61
62881;BME280;48969;49.934;8.596;2022-07-26T04:59:02;100467.41;;;23.02;57.78
62881;BME280;48969;49.934;8.596;2022-07-26T05:02:14;100471.09;;;23.01;58.30
62881;BME280;48969;49.934;8.596;2022-07-26T05:04:42;100474.00;;;23.00;57.42
62881;BME280;48969;49.934;8.596;2022-07-26T05:07:11;100471.31;;;23.00;57.79
62881;BME280;48969;49.934;8.596;2022-07-26T05:09:36;100477.53;;;23.00;57.29
62881;BME280;48969;49.934;8.596;2022-07-26T05:12:02;100481.78;;;22.94;57.29
62881;BME280;48969;49.934;8.596;2022-07-26T05:14:30;100481.41;;;22.89;58.13
62881;BME280;48969;49.934;8.596;2022-07-26T05:17:16;100482.44;;;22.88;57.66
62881;BME280;48969;49.934;8.596;2022-07-26T05:22:33;100477.22;;;22.87;58.42
62881;BME280;48969;49.934;8.596;2022-07-26T05:25:09;100476.22;;;22.88;58.76
62881;BME280;48969;49.934;8.596;2022-07-26T05:27:34;100477.53;;;22.92;58.79
62881;BME280;48969;49.934;8.596;2022-07-26T05:30:00;100480.56;;;22.97;58.52
62881;BME280;48969;49.934;8.596;2022-07-26T05:32:28;100482.78;;;23.02;58.87
62881;BME280;48969;49.934;8.596;2022-07-26T05:34:58;100487.00;;;23.04;58.11
62881;BME280;48969;49.934;8.596;2022-07-26T05:37:26;100483.28;;;23.05;57.85
62881;BME280;48969;49.934;8.596;2022-07-26T05:39:55;100489.72;;;23.04;57.33
62881;BME280;48969;49.934;8.596;2022-07-26T05:42:32;100486.66;;;23.07;57.48
62881;BME280;48969;49.934;8.596;2022-07-26T05:45:05;100490.69;;;23.11;57.10
62881;BME280;48969;49.934;8.596;2022-07-26T05:50:09;100490.69;;;23.11;56.62
62881;BME280;48969;49.934;8.596;2022-07-26T05:52:46;100490.19;;;23.16;56.79
62881;BME280;48969;49.934;8.596;2022-07-26T05:55:19;100492.19;;;23.22;56.86
62881;BME280;48969;49.934;8.596;2022-07-26T05:58:13;100497.56;;;23.30;56.75
62881;BME280;48969;49.934;8.596;2022-07-26T06:00:38;100492.78;;;23.41;55.67
62881;BME280;48969;49.934;8.596;2022-07-26T06:03:04;100488.50;;;23.54;55.34
62881;BME280;48969;49.934;8.596;2022-07-26T06:05:50;100492.16;;;23.70;54.93
62881;BME280;48969;49.934;8.596;2022-07-26T06:08:18;100493.81;;;23.79;55.20
62881;BME280;48969;49.934;8.596;2022-07-26T06:10:44;100485.81;;;23.86;55.31
62881;BME280;48969;49.934;8.596;2022-07-26T06:13:11;100489.28;;;23.94;54.61
62881;BME280;48969;49.934;8.596;2022-07-26T06:15:37;100495.03;;;23.99;54.15
62881;BME280;48969;49.934;8.596;2022-07-26T06:18:04;100495.69;;;24.01;54.28
62881;BME280;48969;49.934;8.596;2022-07-26T06:20:31;100503.78;;;24.01;54.55
62881;BME280;48969;49.934;8.596;2022-07-26T06:22:57;100495.13;;;24.06;54.75
62881;BME280;48969;49.934;8.596;2022-07-26T06:25:24;100497.66;;;24.08;54.90
62881;BME280;48969;49.934;8.596;2022-07-26T06:27:51;100488.16;;;24.12;54.57
62881;BME280;48969;49.934;8.596;2022-07-26T06:30:17;100492.50;;;24.21;54.20
62881;BME280;48969;49.934;8.596;2022-07-26T06:32:42;100498.75;;;24.21;54.14
62881;BME280;48969;49.934;8.596;2022-07-26T06:35:12;100495.59;;;24.18;54.16
62881;BME280;48969;49.934;8.596;2022-07-26T06:37:40;100506.97;;;24.13;54.43
62881;BME280;48969;49.934;8.596;2022-07-26T06:40:08;100501.53;;;24.13;54.34
62881;BME280;48969;49.934;8.596;2022-07-26T06:42:35;100505.47;;;24.11;54.20
62881;BME280;48969;49.934;8.596;2022-07-26T06:45:01;100500.22;;;24.09;53.32
62881;BME280;48969;49.934;8.596;2022-07-26T06:47:45;100505.78;;;24.08;53.79
62881;BME280;48969;49.934;8.596;2022-07-26T06:50:10;100504.03;;;24.15;53.85
62881;BME280;48969;49.934;8.596;2022-07-26T06:52:36;100501.47;;;24.21;54.26
62881;BME280;48969;49.934;8.596;2022-07-26T06:55:02;100498.69;;;24.30;53.20
62881;BME280;48969;49.934;8.596;2022-07-26T06:57:29;100501.03;;;24.33;52.99
62881;BME280;48969;49.934;8.596;2022-07-26T06:59:54;100500.19;;;24.32;53.90
62881;BME280;48969;49.934;8.596;2022-07-26T07:02:28;100499.94;;;24.42;52.03
62881;BME280;48969;49.934;8.596;2022-07-26T07:04:58;100499.81;;;24.35;53.34
62881;BME280;48969;49.934;8.596;2022-07-26T07:07:24;100504.25;;;24.36;53.47
62881;BME280;48969;49.934;8.596;2022-07-26T07:09:51;100502.47;;;24.43;53.33
62881;BME280;48969;49.934;8.596;2022-07-26T07:12:18;100506.66;;;24.54;52.49
62881;BME280;48969;49.934;8.596;2022-07-26T07:14:43;100507.66;;;24.53;52.71
62881;BME280;48969;49.934;8.596;2022-07-26T07:17:09;100504.63;;;24.56;52.59
62881;BME280;48969;49.934;8.596;2022-07-26T07:19:35;100508.63;;;24.60;51.93
62881;BME280;48969;49.934;8.596;2022-07-26T07:22:03;100505.72;;;24.62;52.50
62881;BME280;48969;49.934;8.596;2022-07-26T07:24:30;100504.53;;;24.65;51.96
62881;BME280;48969;49.934;8.596;2022-07-26T07:26:56;100507.06;;;24.66;52.19
62881;BME280;48969;49.934;8.596;2022-07-26T07:29:23;100507.91;;;24.67;53.41
62881;BME280;48969;49.934;8.596;2022-07-26T07:31:49;100498.72;;;24.68;54.12
62881;BME280;48969;49.934;8.596;2022-07-26T07:34:15;100496.22;;;24.66;52.19
62881;BME280;48969;49.934;8.596;2022-07-26T07:36:47;100500.03;;;24.72;52.79
62881;BME280;48969;49.934;8.596;2022-07-26T07:39:14;100498.09;;;24.80;52.44
62881;BME280;48969;49.934;8.596;2022-07-26T07:41:39;100508.50;;;24.92;51.64
62881;BME280;48969;49.934;8.596;2022-07-26T07:44:05;100505.00;;;24.83;51.92
62881;BME280;48969;49.934;8.596;2022-07-26T07:46:30;100500.31;;;24.77;51.68
62881;BME280;48969;49.934;8.596;2022-07-26T07:48:56;100506.50;;;24.86;52.66
62881;BME280;48969;49.934;8.596;2022-07-26T07:51:24;100497.25;;;24.95;52.31
62881;BME280;48969;49.934;8.596;2022-07-26T07:53:49;100501.84;;;24.94;51.55
62881;BME280;48969;49.934;8.596;2022-07-26T07:56:14;100500.72;;;25.03;52.56
62881;BME280;48969;49.934;8.596;2022-07-26T07:58:40;100512.69;;;24.94;52.08
62881;BME280;48969;49.934;8.596;2022-07-26T08:01:06;100504.28;;;25.04;51.45
62881;BME280;48969;49.934;8.596;2022-07-26T08:03:32;100507.47;;;25.08;51.14
62881;BME280;48969;49.934;8.596;2022-07-26T08:05:57;100511.22;;;25.07;51.08
62881;BME280;48969;49.934;8.596;2022-07-26T08:08:23;100503.25;;;25.05;51.08
62881;BME280;48969;49.934;8.596;2022-07-26T08:10:50;100511.28;;;25.13;50.74
62881;BME280;48969;49.934;8.596;2022-07-26T08:13:16;100511.25;;;25.21;51.09
62881;BME280;48969;49.934;8.596;2022-07-26T08:15:41;100518.03;;;25.17;50.60
62881;BME280;48969;49.934;8.596;2022-07-26T08:18:07;100507.75;;;25.13;51.50
62881;BME280;48969;49.934;8.596;2022-07-26T08:20:32;100517.75;;;25.12;51.33
62881;BME280;48969;49.934;8.596;2022-07-26T08:22:58;100510.69;;;25.26;50.76
62881;BME280;48969;49.934;8.596;2022-07-26T08:25:23;100524.25;;;25.26;51.47
62881;BME280;48969;49.934;8.596;2022-07-26T08:27:48;100511.44;;;25.35;50.15
62881;BME280;48969;49.934;8.596;2022-07-26T08:30:14;100516.13;;;25.41;50.93
62881;BME280;48969;49.934;8.596;2022-07-26T08:32:40;100518.34;;;25.37;51.89
62881;BME280;48969;49.934;8.596;2022-07-26T08:35:06;100522.72;;;25.38;48.83
62881;BME280;48969;49.934;8.596;2022-07-26T08:37:32;100505.16;;;25.34;50.10
62881;BME280;48969;49.934;8.596;2022-07-26T08:39:58;100516.84;;;25.35;50.10
62881;BME280;48969;49.934;8.596;2022-07-26T08:42:23;100517.97;;;25.40;50.30
62881;BME280;48969;49.934;8.596;2022-07-26T08:44:49;100523.03;;;25.43;49.88
62881;BME280;48969;49.934;8.596;2022-07-26T08:47:17;100517.59;;;25.43;50.14
62881;BME280;48969;49.934;8.596;2022-07-26T08:49:44;100515.34;;;25.47;48.94
62881;BME280;48969;49.934;8.596;2022-07-26T08:52:11;100524.31;;;25.48;49.75
62881;BME280;48969;49.934;8.596;2022-07-26T08:54:44;100518.97;;;25.54;49.70
62881;BME280;48969;49.934;8.596;2022-07-26T08:57:11;100521.78;;;25.61;49.35
62881;BME280;48969;49.934;8.596;2022-07-26T08:59:37;100524.56;;;25.82;50.63
62881;BME280;48969;49.934;8.596;2022-07-26T09:02:05;100529.44;;;25.72;49.66
62881;BME280;48969;49.934;8.596;2022-07-26T09:04:41;100522.06;;;25.66;48.94
62881;BME280;48969;49.934;8.596;2022-07-26T09:07:13;100519.03;;;25.76;48.06
62881;BME280;48969;49.934;8.596;2022-07-26T09:09:57;100522.69;;;25.68;49.12
62881;BME280;48969;49.934;8.596;2022-07-26T09:12:24;100523.16;;;25.72;49.25
62881;BME280;48969;49.934;8.596;2022-07-26T09:14:50;100529.81;;;25.69;49.72
62881;BME280;48969;49.934;8.596;2022-07-26T09:17:20;100526.34;;;25.75;49.52
62881;BME280;48969;49.934;8.596;2022-07-26T09:23:04;100523.69;;;25.97;49.05
62881;BME280;48969;49.934;8.596;2022-07-26T09:25:41;100522.66;;;25.98;48.48
62881;BME280;48969;49.934;8.596;2022-07-26T09:28:24;100525.97;;;26.15;48.17
62881;BME280;48969;49.934;8.596;2022-07-26T09:30:59;100529.09;;;26.33;47.66
62881;BME280;48969;49.934;8.596;2022-07-26T09:33:45;100524.53;;;26.40;47.97
62881;BME280;48969;49.934;8.596;2022-07-26T09:36:12;100530.44;;;26.44;47.10
62881;BME280;48969;49.934;8.596;2022-07-26T09:38:40;100533.53;;;26.41;47.53
62881;BME280;48969;49.934;8.596;2022-07-26T09:41:23;100536.06;;;26.42;47.85
62881;BME280;48969;49.934;8.596;2022-07-26T09:43:59;100525.31;;;26.34;46.84
62881;BME280;48969;49.934;8.596;2022-07-26T09:46:25;100532.78;;;26.25;45.77
62881;BME280;48969;49.934;8.596;2022-07-26T09:48:53;100527.25;;;26.40;46.77
62881;BME280;48969;49.934;8.596;2022-07-26T09:51:42;100523.78;;;26.46;47.45
62881;BME280;48969;49.934;8.596;2022-07-26T09:54:10;100516.78;;;26.37;45.54
62881;BME280;48969;49.934;8.596;2022-07-26T09:56:47;100518.03;;;26.56;45.08
62881;BME280;48969;49.934;8.596;2022-07-26T09:59:17;100519.34;;;26.45;46.42
62881;BME280;48969;49.934;8.596;2022-07-26T10:01:43;100524.03;;;26.30;45.73
62881;BME280;48969;49.934;8.596;2022-07-26T10:04:09;100518.78;;;26.28;46.73
62881;BME280;48969;49.934;8.596;2022-07-26T10:06:35;100530.38;;;26.37;46.81
62881;BME280;48969;49.934;8.596;2022-07-26T10:09:01;100533.38;;;26.21;47.03
62881;BME280;48969;49.934;8.596;2022-07-26T10:11:35;100525.66;;;26.24;46.97
62881;BME280;48969;49.934;8.596;2022-07-26T10:19:50;100522.09;;;26.67;46.16
62881;BME280;48969;49.934;8.596;2022-07-26T10:22:29;100520.16;;;26.61;44.65
62881;BME280;48969;49.934;8.596;2022-07-26T10:27:45;100530.28;;;26.52;46.36
62881;BME280;48969;49.934;8.596;2022-07-26T10:30:23;100525.50;;;26.54;45.33
62881;BME280;48969;49.934;8.596;2022-07-26T10:38:22;100524.41;;;26.48;46.62
62881;BME280;48969;49.934;8.596;2022-07-26T10:41:02;100533.94;;;26.38;46.51
62881;BME280;48969;49.934;8.596;2022-07-26T10:43:32;100530.25;;;26.67;46.54
62881;BME280;48969;49.934;8.596;2022-07-26T10:49:01;100518.53;;;26.95;46.70
62881;BME280;48969;49.934;8.596;2022-07-26T10:51:39;100511.59;;;27.20;45.13
62881;BME280;48969;49.934;8.596;2022-07-26T10:54:08;100513.75;;;27.31;43.88
62881;BME280;48969;49.934;8.596;2022-07-26T10:56:34;100518.72;;;27.21;44.13
62881;BME280;48969;49.934;8.596;2022-07-26T10:59:00;100515.44;;;27.32;44.02
62881;BME280;48969;49.934;8.596;2022-07-26T11:01:43;100515.00;;;27.29;44.48
62881;BME280;48969;49.934;8.596;2022-07-26T11:04:17;100509.75;;;27.27;44.37
62881;BME280;48969;49.934;8.596;2022-07-26T11:06:44;100509.56;;;27.29;44.30
62881;BME280;48969;49.934;8.596;2022-07-26T11:09:10;100504.56;;;27.39;43.80
62881;BME280;48969;49.934;8.596;2022-07-26T11:11:36;100508.81;;;27.48;43.55
62881;BME280;48969;49.934;8.596;2022-07-26T11:14:06;100500.69;;;27.62;43.32
62881;BME280;48969;49.934;8.596;2022-07-26T11:19:21;100493.34;;;28.50;41.37
62881;BME280;48969;49.934;8.596;2022-07-26T11:21:58;100492.06;;;28.93;41.49
62881;BME280;48969;49.934;8.596;2022-07-26T11:24:25;100492.91;;;28.73;39.70
62881;BME280;48969;49.934;8.596;2022-07-26T11:26:53;100494.56;;;28.28;42.00
62881;BME280;48969;49.934;8.596;2022-07-26T11:29:30;100451.16;;;28.00;41.97
62881;BME280;48969;49.934;8.596;2022-07-26T11:31:59;100500.38;;;27.91;40.60
62881;BME280;48969;49.934;8.596;2022-07-26T11:34:27;100497.78;;;27.70;41.24
62881;BME280;48969;49.934;8.596;2022-07-26T11:36:56;100497.63;;;27.37;43.32
62881;BME280;48969;49.934;8.596;2022-07-26T11:39:24;100499.38;;;27.16;43.71
62881;BME280;48969;49.934;8.596;2022-07-26T11:44:24;100494.28;;;27.00;42.95
62881;BME280;48969;49.934;8.596;2022-07-26T11:46:50;100496.75;;;26.95;44.19
62881;BME280;48969;49.934;8.596;2022-07-26T11:49:25;100500.72;;;26.92;46.07
62881;BME280;48969;49.934;8.596;2022-07-26T11:51:53;100485.09;;;27.01;45.51
62881;BME280;48969;49.934;8.596;2022-07-26T11:54:21;100494.34;;;27.13;44.07
62881;BME280;48969;49.934;8.596;2022-07-26T11:57:00;100491.94;;;27.25;42.72
62881;BME280;48969;49.934;8.596;2022-07-26T11:59:29;100497.72;;;27.15;42.25
62881;BME280;48969;49.934;8.596;2022-07-26T12:01:56;100497.78;;;26.94;43.21
62881;BME280;48969;49.934;8.596;2022-07-26T12:04:26;100494.72;;;26.75;43.83
62881;BME280;48969;49.934;8.596;2022-07-26T12:07:00;100495.13;;;26.72;44.46
62881;BME280;48969;49.934;8.596;2022-07-26T12:09:36;100492.88;;;26.76;45.25
62881;BME280;48969;49.934;8.596;2022-07-26T12:12:38;100494.53;;;26.77;44.58
62881;BME280;48969;49.934;8.596;2022-07-26T12:15:05;100492.81;;;26.69;45.30
62881;BME280;48969;49.934;8.596;2022-07-26T12:17:34;100488.41;;;26.68;44.39
62881;BME280;48969;49.934;8.596;2022-07-26T12:20:14;100490.34;;;26.74;44.28
62881;BME280;48969;49.934;8.596;2022-07-26T12:23:02;100481.31;;;26.67;44.06
62881;BME280;48969;49.934;8.596;2022-07-26T12:25:31;100480.94;;;26.77;44.49
62881;BME280;48969;49.934;8.596;2022-07-26T12:27:57;100473.47;;;26.85;44.33
62881;BME280;48969;49.934;8.596;2022-07-26T12:30:23;100473.06;;;26.88;44.31
62881;BME280;48969;49.934;8.596;2022-07-26T12:32:50;100489.00;;;26.91;44.13
62881;BME280;48969;49.934;8.596;2022-07-26T12:35:25;100484.13;;;27.15;42.50
62881;BME280;48969;49.934;8.596;2022-07-26T12:37:53;100485.91;;;27.01;42.65
62881;BME280;48969;49.934;8.596;2022-07-26T12:40:24;100481.03;;;26.90;44.26
62881;BME280;48969;49.934;8.596;2022-07-26T12:45:21;100482.81;;;26.76;45.01
62881;BME280;48969;49.934;8.596;2022-07-26T12:47:51;100479.81;;;26.64;45.78
62881;BME280;48969;49.934;8.596;2022-07-26T12:50:19;100484.41;;;26.64;45.71
62881;BME280;48969;49.934;8.596;2022-07-26T12:52:48;100490.16;;;26.76;44.56
62881;BME280;48969;49.934;8.596;2022-07-26T12:55:17;100477.38;;;26.76;43.57
62881;BME280;48969;49.934;8.596;2022-07-26T12:57:46;100468.41;;;26.76;44.70
62881;BME280;48969;49.934;8.596;2022-07-26T13:00:15;100469.97;;;26.63;45.25
62881;BME280;48969;49.934;8.596;2022-07-26T13:02:44;100474.44;;;26.71;45.25
62881;BME280;48969;49.934;8.596;2022-07-26T13:05:10;100472.44;;;26.58;46.45
62881;BME280;48969;49.934;8.596;2022-07-26T13:07:37;100470.28;;;26.54;46.35
62881;BME280;48969;49.934;8.596;2022-07-26T13:10:05;100463.56;;;26.49;47.18
62881;BME280;48969;49.934;8.596;2022-07-26T13:12:30;100460.25;;;26.54;46.69
62881;BME280;48969;49.934;8.596;2022-07-26T13:14:57;100465.53;;;26.56;46.53
62881;BME280;48969;49.934;8.596;2022-07-26T13:17:22;100463.28;;;26.66;46.30
62881;BME280;48969;49.934;8.596;2022-07-26T13:19:48;100457.75;;;26.81;46.67
62881;BME280;48969;49.934;8.596;2022-07-26T13:22:15;100458.66;;;26.95;45.32
62881;BME280;48969;49.934;8.596;2022-07-26T13:24:40;100459.22;;;26.83;45.18
62881;BME280;48969;49.934;8.596;2022-07-26T13:27:06;100455.44;;;26.78;45.03
62881;BME280;48969;49.934;8.596;2022-07-26T13:29:35;100457.34;;;26.84;45.42
62881;BME280;48969;49.934;8.596;2022-07-26T13:32:02;100455.69;;;26.83;45.38
62881;BME280;48969;49.934;8.596;2022-07-26T13:34:28;100451.22;;;26.75;45.78
62881;BME280;48969;49.934;8.596;2022-07-26T13:36:55;100457.19;;;26.92;45.13
62881;BME280;48969;49.934;8.596;2022-07-26T13:39:21;100457.56;;;26.89;44.58
62881;BME280;48969;49.934;8.596;2022-07-26T13:41:47;100452.50;;;26.79;44.69
62881;BME280;48969;49.934;8.596;2022-07-26T13:44:13;100457.25;;;26.70;45.12
62881;BME280;48969;49.934;8.596;2022-07-26T13:46:39;100460.44;;;26.74;45.30
62881;BME280;48969;49.934;8.596;2022-07-26T13:49:05;100457.84;;;26.66;45.68
62881;BME280;48969;49.934;8.596;2022-07-26T13:51:34;100456.97;;;26.59;47.54
62881;BME280;48969;49.934;8.596;2022-07-26T13:54:19;100450.19;;;26.76;45.64
62881;BME280;48969;49.934;8.596;2022-07-26T13:56:48;100455.59;;;26.69;46.04
62881;BME280;48969;49.934;8.596;2022-07-26T13:59:14;100456.38;;;26.63;47.04
62881;BME280;48969;49.934;8.596;2022-07-26T14:01:41;100461.84;;;26.70;46.17
62881;BME280;48969;49.934;8.596;2022-07-26T14:04:08;100452.72;;;26.78;45.52
62881;BME280;48969;49.934;8.596;2022-07-26T14:06:36;100445.63;;;26.83;44.04
62881;BME280;48969;49.934;8.596;2022-07-26T14:09:05;100444.50;;;26.71;45.18
62881;BME280;48969;49.934;8.596;2022-07-26T14:11:45;100453.31;;;26.73;46.19
62881;BME280;48969;49.934;8.596;2022-07-26T14:14:19;100448.94;;;26.79;44.81
62881;BME280;48969;49.934;8.596;2022-07-26T14:17:11;100448.34;;;26.83;44.56
62881;BME280;48969;49.934;8.596;2022-07-26T14:19:40;100449.22;;;26.90;44.37
62881;BME280;48969;49.934;8.596;2022-07-26T14:22:05;100442.25;;;26.81;45.31
62881;BME280;48969;49.934;8.596;2022-07-26T14:24:32;100448.25;;;26.98;45.23
62881;BME280;48969;49.934;8.596;2022-07-26T14:26:58;100459.78;;;27.07;44.96
62881;BME280;48969;49.934;8.596;2022-07-26T14:29:26;100446.94;;;27.29;41.79
62881;BME280;48969;49.934;8.596;2022-07-26T14:32:00;100448.88;;;27.07;44.00
62881;BME280;48969;49.934;8.596;2022-07-26T14:34:29;100446.31;;;26.92;45.44
62881;BME280;48969;49.934;8.596;2022-07-26T14:36:57;100446.53;;;26.97;42.45
62881;BME280;48969;49.934;8.596;2022-07-26T14:39:24;100451.03;;;26.77;43.73
62881;BME280;48969;49.934;8.596;2022-07-26T14:41:50;100442.81;;;26.70;44.81
62881;BME280;48969;49.934;8.596;2022-07-26T14:44:30;100446.03;;;26.80;45.04
62881;BME280;48969;49.934;8.596;2022-07-26T14:46:56;100443.97;;;26.89;44.01
62881;BME280;48969;49.934;8.596;2022-07-26T14:49:33;100441.91;;;26.91;44.36
62881;BME280;48969;49.934;8.596;2022-07-26T14:52:15;100437.50;;;26.90;43.58
62881;BME280;48969;49.934;8.596;2022-07-26T14:54:43;100437.63;;;26.75;44.33
62881;BME280;48969;49.934;8.596;2022-07-26T14:57:20;100437.63;;;26.75;44.21
62881;BME280;48969;49.934;8.596;2022-07-26T14:59:45;100436.72;;;26.68;46.20
62881;BME280;48969;49.934;8.596;2022-07-26T15:02:13;100435.81;;;26.82;43.32
62881;BME280;48969;49.934;8.596;2022-07-26T15:04:40;100436.19;;;26.79;44.55
62881;BME280;48969;49.934;8.596;2022-07-26T15:07:05;100435.53;;;26.77;44.50
62881;BME280;48969;49.934;8.596;2022-07-26T15:09:31;100433.94;;;26.89;44.65
62881;BME280;48969;49.934;8.596;2022-07-26T15:11:57;100434.59;;;26.91;44.77
62881;BME280;48969;49.934;8.596;2022-07-26T15:14:23;100432.28;;;26.95;44.19
62881;BME280;48969;49.934;8.596;2022-07-26T15:16:48;100433.72;;;26.91;44.89
62881;BME280;48969;49.934;8.596;2022-07-26T15:19:13;100429.31;;;26.83;44.83
62881;BME280;48969;49.934;8.596;2022-07-26T15:21:39;100426.50;;;26.70;44.10
62881;BME280;48969;49.934;8.596;2022-07-26T15:24:04;100431.50;;;26.66;44.42
62881;BME280;48969;49.934;8.596;2022-07-26T15:26:30;100434.66;;;26.70;44.74
62881;BME280;48969;49.934;8.596;2022-07-26T15:28:55;100426.06;;;26.66;45.00
62881;BME280;48969;49.934;8.596;2022-07-26T15:31:21;100417.56;;;26.76;44.35
62881;BME280;48969;49.934;8.596;2022-07-26T15:33:48;100425.09;;;26.81;43.85
62881;BME280;48969;49.934;8.596;2022-07-26T15:36:14;100429.34;;;26.90;42.33
62881;BME280;48969;49.934;8.596;2022-07-26T15:38:40;100419.84;;;26.79;43.75
62881;BME280;48969;49.934;8.596;2022-07-26T15:44:09;100423.13;;;26.68;43.57
62881;BME280;48969;49.934;8.596;2022-07-26T15:47:05;100422.91;;;26.63;43.97
62881;BME280;48969;49.934;8.596;2022-07-26T15:49:48;100426.25;;;26.65;44.31
62881;BME280;48969;49.934;8.596;2022-07-26T15:55:34;100420.38;;;26.61;43.41
62881;BME280;48969;49.934;8.596;2022-07-26T15:58:02;100427.28;;;26.57;42.99
62881;BME280;48969;49.934;8.596;2022-07-26T16:00:46;100417.97;;;26.73;40.88
62881;BME280;48969;49.934;8.596;2022-07-26T16:03:33;100415.66;;;26.77;41.41
62881;BME280;48969;49.934;8.596;2022-07-26T16:06:20;100413.50;;;26.65;41.48
62881;BME280;48969;49.934;8.596;2022-07-26T16:08:56;100414.44;;;26.51;41.80
62881;BME280;48969;49.934;8.596;2022-07-26T16:11:32;100416.44;;;26.42;42.96
62881;BME280;48969;49.934;8.596;2022-07-26T16:14:00;100415.16;;;26.38;43.12
62881;BME280;48969;49.934;8.596;2022-07-26T16:16:26;100417.03;;;26.38;43.43
62881;BME280;48969;49.934;8.596;2022-07-26T16:18:55;100408.34;;;26.49;43.85
62881;BME280;48969;49.934;8.596;2022-07-26T16:21:26;100411.91;;;26.49;44.15
62881;BME280;48969;49.934;8.596;2022-07-26T16:23:52;100406.63;;;26.41;44.94
62881;BME280;48969;49.934;8.596;2022-07-26T16:26:31;100411.19;;;26.41;45.00
62881;BME280;48969;49.934;8.596;2022-07-26T16:29:05;100408.69;;;26.39;45.16
62881;BME280;48969;49.934;8.596;2022-07-26T16:31:50;100400.31;;;26.41;44.50
62881;BME280;48969;49.934;8.596;2022-07-26T16:40:10;100409.97;;;26.43;45.44
62881;BME280;48969;49.934;8.596;2022-07-26T16:42:50;100398.91;;;26.45;44.17
62881;BME280;48969;49.934;8.596;2022-07-26T16:45:21;100405.81;;;26.47;43.29
62881;BME280;48969;49.934;8.596;2022-07-26T16:48:06;100404.28;;;26.38;44.99
62881;BME280;48969;49.934;8.596;2022-07-26T16:51:03;100404.28;;;26.38;44.05
62881;BME280;48969;49.934;8.596;2022-07-26T16:53:36;100409.13;;;26.43;43.92
62881;BME280;48969;49.934;8.596;2022-07-26T16:56:04;100405.97;;;26.39;44.43
62881;BME280;48969;49.934;8.596;2022-07-26T16:58:41;100400.28;;;26.34;44.59
62881;BME280;48969;49.934;8.596;2022-07-26T17:01:16;100402.41;;;26.39;45.07
62881;BME280;48969;49.934;8.596;2022-07-26T17:04:05;100403.63;;;26.36;45.47
62881;BME280;48969;49.934;8.596;2022-07-26T17:06:55;100405.09;;;26.32;46.23
62881;BME280;48969;49.934;8.596;2022-07-26T17:09:23;100409.47;;;26.33;45.24
62881;BME280;48969;49.934;8.596;2022-07-26T17:12:15;100409.94;;;26.37;44.92
62881;BME280;48969;49.934;8.596;2022-07-26T17:14:41;100402.97;;;26.27;46.04
62881;BME280;48969;49.934;8.596;2022-07-26T17:17:21;100409.44;;;26.26;44.44
62881;BME280;48969;49.934;8.596;2022-07-26T17:19:46;100416.75;;;26.26;44.65
62881;BME280;48969;49.934;8.596;2022-07-26T17:22:12;100413.19;;;26.25;45.08
62881;BME280;48969;49.934;8.596;2022-07-26T17:24:41;100415.00;;;26.18;45.94
62881;BME280;48969;49.934;8.596;2022-07-26T17:27:06;100415.22;;;26.17;45.76
62881;BME280;48969;49.934;8.596;2022-07-26T17:29:52;100415.00;;;26.18;45.51
62881;BME280;48969;49.934;8.596;2022-07-26T17:32:42;100409.84;;;26.23;43.69
62881;BME280;48969;49.934;8.596;2022-07-26T17:35:15;100410.91;;;26.29;43.63
62881;BME280;48969;49.934;8.596;2022-07-26T17:37:48;100402.44;;;26.45;42.27
62881;BME280;48969;49.934;8.596;2022-07-26T17:40:18;100399.53;;;26.47;42.03
62881;BME280;48969;49.934;8.596;2022-07-26T17:42:45;100403.81;;;26.28;43.38
62881;BME280;48969;49.934;8.596;2022-07-26T17:45:14;100403.69;;;26.15;43.78
62881;BME280;48969;49.934;8.596;2022-07-26T17:47:40;100409.91;;;26.08;44.54
62881;BME280;48969;49.934;8.596;2022-07-26T17:50:08;100406.53;;;26.06;44.29
62881;BME280;48969;49.934;8.596;2022-07-26T17:52:37;100416.25;;;25.94;45.98
62881;BME280;48969;49.934;8.596;2022-07-26T17:55:06;100405.59;;;25.93;46.19
62881;BME280;48969;49.934;8.596;2022-07-26T17:57:38;100417.81;;;26.03;44.77
62881;BME280;48969;49.934;8.596;2022-07-26T18:00:04;100419.22;;;25.99;45.40
62881;BME280;48969;49.934;8.596;2022-07-26T18:02:45;100414.78;;;25.92;46.40
62881;BME280;48969;49.934;8.596;2022-07-26T18:05:17;100421.63;;;25.87;46.40
62881;BME280;48969;49.934;8.596;2022-07-26T18:07:53;100416.00;;;25.89;46.08
62881;BME280;48969;49.934;8.596;2022-07-26T18:10:20;100427.06;;;25.87;46.69
62881;BME280;48969;49.934;8.596;2022-07-26T18:12:49;100424.59;;;25.93;45.85